Home > Products > Valid Products > TAF

000
FTUS45 KVEF 271700
TAFBIH
TAF
KBIH 271720Z 2718/2818 18006KT P6SM BKN250
     FM280300 33006KT P6SM BKN250=



000
FTUS45 KVEF 271700
TAFVGT
TAF
KVGT 271720Z 2718/2818 VRB05KT P6SM BKN250
     FM280300 32006KT P6SM BKN250
     FM281500 VRB05KT P6SM BKN250=



000
FTUS45 KVEF 271700
TAFEED
TAF
KEED 271720Z 2718/2818 36007KT P6SM FEW250
     FM280200 VRB06KT P6SM BKN250=



000
FTUS45 KVEF 271700
TAFLAS
TAF
KLAS 271720Z 2718/2818 VRB05KT P6SM BKN250
     FM280200 20007KT P6SM BKN250
     FM281600 VRB05KT P6SM BKN250=



000
FTUS45 KVEF 271700
TAFLAS
TAF
KLAS 271720Z 2718/2818 VRB05KT P6SM BKN250
     FM280200 20007KT P6SM BKN250
     FM281600 VRB05KT P6SM BKN250=



000
FTUS45 KVEF 271700
TAFDAG
TAF
KDAG 271720Z 2718/2818 07006KT P6SM BKN250
     FM280300 VRB05KT P6SM BKN250
     FM280900 27008KT P6SM BKN250
     FM281600 29007KT P6SM BKN250=



000
FTUS45 KVEF 271400 AAA
TAFLAS
TAF AMD
KLAS 271435Z 2715/2812 22006KT P6SM SCT250
     FM271600 VRB05KT P6SM BKN250
     FM280200 20007KT P6SM BKN250=



000
FTUS45 KVEF 271400 AAA
TAFLAS
TAF AMD
KLAS 271435Z 2715/2812 22006KT P6SM SCT250
     FM271600 VRB05KT P6SM BKN250
     FM280200 20007KT P6SM BKN250=



000
FTUS45 KVEF 271100
TAFLAS
TAF
KLAS 271120Z 2712/2812 21008KT P6SM SKC
     FM271500 VRB04KT P6SM FEW250
     FM280200 20007KT P6SM BKN250=



000
FTUS45 KVEF 271100
TAFEED
TAF
KEED 271120Z 2712/2812 33007KT P6SM SKC
     FM271700 36007KT P6SM FEW250
     FM280200 33007KT P6SM SCT250=



000
FTUS45 KVEF 271100
TAFLAS
TAF
KLAS 271120Z 2712/2812 21008KT P6SM SKC
     FM271500 VRB04KT P6SM FEW250
     FM280200 20007KT P6SM BKN250=



000
FTUS45 KVEF 271100
TAFDAG
TAF
KDAG 271120Z 2712/2812 27006KT P6SM SKC
     FM271800 07006KT P6SM FEW250
     FM280300 VRB05KT P6SM BKN250=



000
FTUS45 KVEF 271100
TAFBIH
TAF
KBIH 271120Z 2712/2812 32005KT P6SM FEW250
     FM271800 18006KT P6SM BKN250
     FM280300 33006KT P6SM BKN250=



000
FTUS45 KVEF 271100
TAFVGT
TAF
KVGT 271120Z 2712/2812 32006KT P6SM SKC
     FM271800 VRB05KT P6SM FEW250
     FM280300 32006KT P6SM BKN250=



000
FTUS45 KVEF 270800 AAA
TAFLAS
TAF AMD
KLAS 270845Z 2709/2806 21007KT P6SM SKC
     FM271500 VRB04KT P6SM FEW250
     FM280200 20007KT P6SM BKN250=



000
FTUS45 KVEF 270800 AAA
TAFLAS
TAF AMD
KLAS 270845Z 2709/2806 21007KT P6SM SKC
     FM271500 VRB04KT P6SM FEW250
     FM280200 20007KT P6SM BKN250=



000
FTUS45 KVEF 270500
TAFLAS
TAF
KLAS 270520Z 2706/2806 21007KT P6SM SKC
     FM271500 VRB04KT P6SM FEW250
     FM280200 20007KT P6SM BKN250=



000
FTUS45 KVEF 270500
TAFDAG
TAF
KDAG 270520Z 2706/2806 27006KT P6SM SKC
     FM271800 07006KT P6SM FEW250
     FM280300 VRB05KT P6SM BKN250=



000
FTUS45 KVEF 270500
TAFEED
TAF
KEED 270520Z 2706/2806 33007KT P6SM SKC
     FM271700 36007KT P6SM FEW250
     FM280200 33007KT P6SM SCT250=



000
FTUS45 KVEF 270500
TAFBIH
TAF
KBIH 270520Z 2706/2806 32005KT P6SM FEW250
     FM271800 18006KT P6SM BKN250
     FM280300 33006KT P6SM BKN250=



000
FTUS45 KVEF 270500
TAFVGT
TAF
KVGT 270520Z 2706/2806 32006KT P6SM SKC
     FM271800 VRB05KT P6SM FEW250
     FM280300 32006KT P6SM BKN250=



000
FTUS45 KVEF 270500
TAFLAS
TAF
KLAS 270520Z 2706/2806 21007KT P6SM SKC
     FM271500 VRB04KT P6SM FEW250
     FM280200 20007KT P6SM BKN250=



000
FTUS45 KVEF 270200 AAA
TAFLAS
TAF AMD
KLAS 270245Z 2703/2724 21007KT P6SM SKC
     FM271500 VRB04KT P6SM FEW250=



000
FTUS45 KVEF 270200 AAA
TAFLAS
TAF AMD
KLAS 270245Z 2703/2724 21007KT P6SM SKC
     FM271500 VRB04KT P6SM FEW250=



000
FTUS45 KVEF 262300
TAFEED
TAF
KEED 262320Z 2700/2724 36012KT P6SM SKC
     FM270300 32007KT P6SM SKC
     FM271700 36007KT P6SM FEW250=



000
FTUS45 KVEF 262300
TAFDAG
TAF
KDAG 262320Z 2700/2724 VRB06KT P6SM SKC
     FM270400 27006KT P6SM SKC
     FM271800 07006KT P6SM FEW250=



000
FTUS45 KVEF 262300
TAFLAS
TAF
KLAS 262320Z 2700/2724 VRB04KT P6SM SKC
     FM270200 22007KT P6SM SKC
     FM271500 VRB04KT P6SM FEW250=



000
FTUS45 KVEF 262300
TAFVGT
TAF
KVGT 262320Z 2700/2724 VRB04KT P6SM SKC
     FM270200 32006KT P6SM SKC
     FM271800 VRB05KT P6SM FEW250=



000
FTUS45 KVEF 262300
TAFLAS
TAF
KLAS 262320Z 2700/2724 VRB04KT P6SM SKC
     FM270200 22007KT P6SM SKC
     FM271500 VRB04KT P6SM FEW250=



000
FTUS45 KVEF 262300
TAFBIH
TAF
KBIH 262320Z 2700/2724 16005KT P6SM SKC
     FM270400 32005KT P6SM FEW250
     FM271800 18006KT P6SM FEW250=



000
FTUS45 KVEF 262000 AAA
TAFLAS
TAF AMD
KLAS 262029Z 2620/2718 VRB04KT P6SM SKC
     FM270200 22007KT P6SM FEW250=



000
FTUS45 KVEF 262000 AAA
TAFLAS
TAF AMD
KLAS 262029Z 2620/2718 VRB04KT P6SM SKC
     FM270200 22007KT P6SM FEW250=



000
FTUS45 KVEF 261700
TAFVGT
TAF
KVGT 261720Z 2618/2718 VRB04KT P6SM FEW250
     FM270200 32006KT P6SM FEW250=



000
FTUS45 KVEF 261700
TAFLAS
TAF
KLAS 261720Z 2618/2718 VRB04KT P6SM SKC
     FM270200 22007KT P6SM FEW250=



000
FTUS45 KVEF 261700
TAFDAG
TAF
KDAG 261720Z 2618/2718 27008KT P6SM SKC
     FM262000 06006KT P6SM FEW250
     FM270400 27006KT P6SM FEW250=



000
FTUS45 KVEF 261700
TAFLAS
TAF
KLAS 261720Z 2618/2718 VRB04KT P6SM SKC
     FM270200 22007KT P6SM FEW250=



000
FTUS45 KVEF 261700
TAFBIH
TAF
KBIH 261720Z 2618/2718 VRB05KT P6SM FEW250=



000
FTUS45 KVEF 261700
TAFEED
TAF
KEED 261720Z 2618/2718 36012KT P6SM FEW250
     FM270300 32007KT P6SM FEW250=



000
FTUS45 KVEF 261700 AAB
TAFLAS
TAF AMD
KLAS 261701Z 2617/2712 VRB04KT P6SM SKC
     FM270200 22007KT P6SM FEW250=



000
FTUS45 KVEF 261700 AAB
TAFLAS
TAF AMD
KLAS 261701Z 2617/2712 VRB04KT P6SM SKC
     FM270200 22007KT P6SM FEW250=



000
FTUS45 KVEF 261400 AAA
TAFLAS
TAF AMD
KLAS 261436Z 2615/2712 23006KT P6SM SKC
     FM261600 VRB04KT P6SM FEW250
     FM270200 22007KT P6SM FEW250=



000
FTUS45 KVEF 261400 AAA
TAFLAS
TAF AMD
KLAS 261436Z 2615/2712 23006KT P6SM SKC
     FM261600 VRB04KT P6SM FEW250
     FM270200 22007KT P6SM FEW250=



000
FTUS45 KVEF 261100
TAFEED
TAF
KEED 261120Z 2612/2712 27006KT P6SM SKC
     FM261600 36012KT P6SM FEW250
     FM270300 32007KT P6SM FEW250=



000
FTUS45 KVEF 261100
TAFVGT
TAF
KVGT 261120Z 2612/2712 32006KT P6SM SKC
     FM261600 VRB04KT P6SM FEW250
     FM270200 32006KT P6SM FEW250=



000
FTUS45 KVEF 261100
TAFBIH
TAF
KBIH 261120Z 2612/2712 33006KT P6SM FEW250
     FM261600 VRB05KT P6SM FEW250=



000
FTUS45 KVEF 261100
TAFLAS
TAF
KLAS 261120Z 2612/2712 20008KT P6SM SKC
     FM261600 VRB04KT P6SM FEW250
     FM270200 22007KT P6SM FEW250=



000
FTUS45 KVEF 261100
TAFLAS
TAF
KLAS 261120Z 2612/2712 20008KT P6SM SKC
     FM261600 VRB04KT P6SM FEW250
     FM270200 22007KT P6SM FEW250=



000
FTUS45 KVEF 261100
TAFDAG
TAF
KDAG 261120Z 2612/2712 27008KT P6SM SKC
     FM262000 06006KT P6SM FEW250
     FM270400 27006KT P6SM FEW250=



000
FTUS45 KVEF 260800 AAA
TAFLAS
TAF AMD
KLAS 260845Z 2609/2706 20007KT P6SM SKC
     FM261600 VRB04KT P6SM FEW250
     FM270200 22007KT P6SM FEW250=



000
FTUS45 KVEF 260800 AAA
TAFLAS
TAF AMD
KLAS 260845Z 2609/2706 20007KT P6SM SKC
     FM261600 VRB04KT P6SM FEW250
     FM270200 22007KT P6SM FEW250=



000
FTUS45 KVEF 260500
TAFEED
TAF
KEED 260520Z 2606/2706 24006KT P6SM SKC
     FM261600 36012KT P6SM FEW250
     FM270300 32007KT P6SM FEW250=



000
FTUS45 KVEF 260500
TAFBIH
TAF
KBIH 260520Z 2606/2706 33006KT P6SM FEW250
     FM261600 VRB05KT P6SM FEW250=



000
FTUS45 KVEF 260500
TAFVGT
TAF
KVGT 260520Z 2606/2706 32006KT P6SM SKC
     FM261600 VRB04KT P6SM FEW250
     FM270200 32006KT P6SM FEW250=



000
FTUS45 KVEF 260500
TAFDAG
TAF
KDAG 260520Z 2606/2706 27008KT P6SM SKC
     FM262000 06006KT P6SM FEW250
     FM270400 27006KT P6SM FEW250=



000
FTUS45 KVEF 260500
TAFLAS
TAF
KLAS 260520Z 2606/2706 21007KT P6SM SKC
     FM261600 VRB04KT P6SM FEW250
     FM270200 22007KT P6SM FEW250=



000
FTUS45 KVEF 260500
TAFLAS
TAF
KLAS 260520Z 2606/2706 21007KT P6SM SKC
     FM261600 VRB04KT P6SM FEW250
     FM270200 22007KT P6SM FEW250=



000
FTUS45 KVEF 260200 AAA
TAFLAS
TAF AMD
KLAS 260247Z 2603/2624 21007KT P6SM FEW250
     FM261600 VRB04KT P6SM FEW250=



000
FTUS45 KVEF 260200 AAA
TAFLAS
TAF AMD
KLAS 260247Z 2603/2624 21007KT P6SM FEW250
     FM261600 VRB04KT P6SM FEW250=



000
FTUS45 KVEF 252300
TAFLAS
TAF
KLAS 252327Z 2600/2624 VRB04KT P6SM FEW250
     FM260100 21007KT P6SM FEW250
     FM261600 VRB04KT P6SM FEW250=



000
FTUS45 KVEF 252300
TAFVGT
TAF
KVGT 252327Z 2600/2624 13004KT P6SM FEW250
     FM260100 32006KT P6SM SCT250
     FM261600 VRB04KT P6SM SCT250=



000
FTUS45 KVEF 252300
TAFDAG
TAF
KDAG 252327Z 2600/2624 VRB06KT P6SM SKC
     FM260300 27009KT P6SM FEW250
     FM262000 06006KT P6SM FEW250=



000
FTUS45 KVEF 252300
TAFLAS
TAF
KLAS 252327Z 2600/2624 VRB04KT P6SM FEW250
     FM260100 21007KT P6SM FEW250
     FM261600 VRB04KT P6SM FEW250=



000
FTUS45 KVEF 252300
TAFBIH
TAF
KBIH 252327Z 2600/2624 VRB06KT P6SM FEW250
     FM260300 33006KT P6SM FEW250
     FM261600 VRB05KT P6SM FEW250=



000
FTUS45 KVEF 252300
TAFEED
TAF
KEED 252327Z 2600/2624 32005KT P6SM FEW250
     FM261600 36012KT P6SM FEW250=



000
FTUS45 KVEF 252100 AAA
TAFLAS
TAF AMD
KLAS 252100Z 2521/2618 17004KT P6SM FEW250
     FM260100 21007KT P6SM FEW250=



000
FTUS45 KVEF 252100 AAA
TAFLAS
TAF AMD
KLAS 252100Z 2521/2618 17004KT P6SM FEW250
     FM260100 21007KT P6SM FEW250=



000
FTUS45 KVEF 251700
TAFEED
TAF
KEED 251727Z 2518/2618 01008KT P6SM SKC
     FM252000 02015G20KT P6SM SKC
     FM260100 32007KT P6SM FEW250=



000
FTUS45 KVEF 251700
TAFVGT
TAF
KVGT 251727Z 2518/2618 13004KT P6SM FEW250
     FM260100 32006KT P6SM SCT250
     FM261400 VRB04KT P6SM SCT250=



000
FTUS45 KVEF 251700
TAFLAS
TAF
KLAS 251727Z 2518/2618 VRB05KT P6SM SKC
     FM251900 17004KT P6SM FEW250
     FM260100 21007KT P6SM FEW250=



000
FTUS45 KVEF 251700
TAFLAS
TAF
KLAS 251727Z 2518/2618 VRB05KT P6SM SKC
     FM251900 17004KT P6SM FEW250
     FM260100 21007KT P6SM FEW250=



000
FTUS45 KVEF 251700
TAFBIH
TAF
KBIH 251727Z 2518/2618 VRB06KT P6SM FEW250
     FM260300 33006KT P6SM FEW250=



000
FTUS45 KVEF 251700
TAFDAG
TAF
KDAG 251727Z 2518/2618 VRB06KT P6SM SKC
     FM260300 27009KT P6SM FEW250=



000
FTUS45 KVEF 251400 AAA
TAFLAS
TAF AMD
KLAS 251435Z 2515/2612 24006KT P6SM SKC
     FM251600 VRB05KT P6SM FEW250
     FM260200 21007KT P6SM FEW250=



000
FTUS45 KVEF 251400 AAA
TAFLAS
TAF AMD
KLAS 251435Z 2515/2612 24006KT P6SM SKC
     FM251600 VRB05KT P6SM FEW250
     FM260200 21007KT P6SM FEW250=



000
FTUS45 KVEF 251100
TAFLAS
TAF
KLAS 251120Z 2512/2612 20008KT P6SM SKC
     FM251600 VRB05KT P6SM FEW250
     FM260200 21007KT P6SM FEW250=



000
FTUS45 KVEF 251100
TAFBIH
TAF
KBIH 251120Z 2512/2612 30006KT P6SM SKC
     FM251700 VRB03KT P6SM FEW250
     FM260300 33006KT P6SM FEW250=



000
FTUS45 KVEF 251100
TAFDAG
TAF
KDAG 251120Z 2512/2612 25007KT P6SM SKC
     FM251800 08005KT P6SM SKC
     FM260300 27006KT P6SM FEW250=



000
FTUS45 KVEF 251100
TAFVGT
TAF
KVGT 251120Z 2512/2612 32005KT P6SM SKC
     FM251700 VRB04KT P6SM FEW250
     FM260300 32006KT P6SM FEW250=



000
FTUS45 KVEF 251100
TAFEED
TAF
KEED 251120Z 2512/2612 27008KT P6SM SKC
     FM251800 01008KT P6SM SKC
     FM260200 31007KT P6SM SKC=



000
FTUS45 KVEF 251100
TAFLAS
TAF
KLAS 251120Z 2512/2612 20008KT P6SM SKC
     FM251600 VRB05KT P6SM FEW250
     FM260200 21007KT P6SM FEW250=



000
FTUS45 KVEF 250800 AAA
TAFLAS
TAF AMD
KLAS 250845Z 2509/2606 20008KT P6SM SKC
     FM251600 VRB05KT P6SM SKC
     FM260200 21007KT P6SM FEW250=



000
FTUS45 KVEF 250800 AAA
TAFLAS
TAF AMD
KLAS 250845Z 2509/2606 20008KT P6SM SKC
     FM251600 VRB05KT P6SM SKC
     FM260200 21007KT P6SM FEW250=



000
FTUS45 KVEF 250500
TAFBIH
TAF
KBIH 250520Z 2506/2606 30006KT P6SM SKC
     FM251700 VRB03KT P6SM FEW250
     FM260300 33006KT P6SM FEW250=



000
FTUS45 KVEF 250500
TAFLAS
TAF
KLAS 250520Z 2506/2606 20008KT P6SM SKC
     FM251600 VRB05KT P6SM SKC
     FM260200 21007KT P6SM FEW250=



000
FTUS45 KVEF 250500
TAFEED
TAF
KEED 250520Z 2506/2606 33008KT P6SM SKC
     FM251800 01008KT P6SM SKC
     FM260200 32007KT P6SM SKC=



000
FTUS45 KVEF 250500
TAFVGT
TAF
KVGT 250520Z 2506/2606 VRB06KT P6SM SKC=



000
FTUS45 KVEF 250500
TAFDAG
TAF
KDAG 250520Z 2506/2606 25007KT P6SM SKC
     FM251800 08005KT P6SM SKC
     FM260300 27006KT P6SM FEW250=



000
FTUS45 KVEF 250500
TAFLAS
TAF
KLAS 250520Z 2506/2606 20008KT P6SM SKC
     FM251600 VRB05KT P6SM SKC
     FM260200 21007KT P6SM FEW250=



000
FTUS45 KVEF 250200 AAA
TAFLAS
TAF AMD
KLAS 250248Z 2503/2524 30008KT P6SM SKC
     FM250700 23006KT P6SM SKC
     FM251700 VRB05KT P6SM SKC=



000
FTUS45 KVEF 250200 AAA
TAFLAS
TAF AMD
KLAS 250248Z 2503/2524 30008KT P6SM SKC
     FM250700 23006KT P6SM SKC
     FM251700 VRB05KT P6SM SKC=



000
FTUS45 KVEF 242300
TAFEED
TAF
KEED 242333Z 2500/2524 01017G27KT P6SM FEW250
     FM250100 36015KT P6SM SKC
     FM250400 33008KT P6SM SKC
     FM251800 01008KT P6SM SKC=



000
FTUS45 KVEF 242300
TAFVGT
TAF
KVGT 242333Z 2500/2524 33011KT P6SM FEW250
     FM250200 VRB06KT P6SM SKC=



000
FTUS45 KVEF 242300
TAFLAS
TAF
KLAS 242333Z 2500/2524 31005KT P6SM FEW250
     FM250300 20008KT P6SM SKC
     FM251700 VRB05KT P6SM SKC=



000
FTUS45 KVEF 242300
TAFBIH
TAF
KBIH 242333Z 2500/2524 30006KT P6SM FEW250
     FM251700 VRB03KT P6SM SKC=



000
FTUS45 KVEF 242300
TAFLAS
TAF
KLAS 242333Z 2500/2524 31005KT P6SM FEW250
     FM250300 20008KT P6SM SKC
     FM251700 VRB05KT P6SM SKC=



000
FTUS45 KVEF 242300
TAFDAG
TAF
KDAG 242333Z 2500/2524 01010KT P6SM FEW250
     FM250200 VRB05KT P6SM FEW250=



000
FTUS45 KVEF 242200 AAB
TAFVGT
TAF AMD
KVGT 242259Z 2423/2518 34010KT P6SM FEW250
     FM250200 VRB06KT P6SM SKC=



000
FTUS45 KVEF 242000 AAA
TAFBIH
TAF AMD
KBIH 242051Z 2421/2518 34010KT P6SM SCT250
     FM250200 32005KT P6SM SKC=



000
FTUS45 KVEF 242000 AAA
TAFVGT
TAF AMD
KVGT 242048Z 2421/2518 12007KT P6SM SCT250
     FM250200 VRB06KT P6SM SKC=



000
FTUS45 KVEF 242000 AAA
TAFLAS
TAF AMD
KLAS 242046Z 2421/2518 06008KT P6SM SCT250
     FM250300 20008KT P6SM SKC=



000
FTUS45 KVEF 242000 AAA
TAFLAS
TAF AMD
KLAS 242046Z 2421/2518 06008KT P6SM SCT250
     FM250300 20008KT P6SM SKC=



    US Dept of Commerce
    National Oceanic and Atmospheric Administration
    National Weather Service
    1325 East West Highway
    Silver Spring, MD 20910
    Page Author: NWS Internet Services Team
Disclaimer
Information Quality
Credits
Glossary
Privacy Policy
Freedom of Information Act (FOIA)
About Us
Career Opportunities